Time;durP1;ratioP1;P1;durP2;ratioP2;P2;SDS_P1;SDS_P2;PMS_P1;PMS_P2;Temp;Humidity;BMP_temperature;BMP_pressure;BME280_temperature;BME280_humidity;BME280_pressure;Samples;Min_cycle;Max_cycle;Signal;HPM_P1;HPM_P2
2021/12/30 00:00:08;;;;;;;30.07;21.53;;;;;;;-4.09;83.26;99832.84;1712487;83;21073;-76
2021/12/30 00:02:36;;;;;;;36.23;21.97;;;;;;;-4.08;83.40;99845.00;1679149;82;21059;-75
2021/12/30 00:05:04;;;;;;;33.00;23.07;;;;;;;-4.01;83.43;99840.77;1750661;82;21019;-76
2021/12/30 00:07:31;;;;;;;31.67;21.90;;;;;;;-3.95;83.36;99841.96;1705722;82;21306;-75
2021/12/30 00:09:57;;;;;;;35.93;21.47;;;;;;;-3.97;83.31;99842.10;1705955;82;21098;-73
2021/12/30 00:12:25;;;;;;;35.93;22.47;;;;;;;-4.00;83.29;99841.11;1750608;80;21056;-75
2021/12/30 00:14:52;;;;;;;32.03;21.80;;;;;;;-4.01;83.34;99839.45;1726964;82;21015;-74
2021/12/30 00:17:18;;;;;;;35.57;21.83;;;;;;;-4.02;83.35;99844.36;1750485;81;21189;-77
2021/12/30 00:19:45;;;;;;;33.60;22.03;;;;;;;-4.01;83.55;99844.70;1750394;82;21261;-76
2021/12/30 00:22:11;;;;;;;31.53;22.07;;;;;;;-3.98;83.57;99851.47;1750089;82;20940;-76
2021/12/30 00:24:39;;;;;;;29.97;19.93;;;;;;;-4.01;83.54;99855.21;1750157;82;21110;-77
2021/12/30 00:27:05;;;;;;;37.40;24.00;;;;;;;-3.96;83.78;99850.81;1730933;82;21525;-76
2021/12/30 00:29:33;;;;;;;33.80;22.03;;;;;;;-3.90;83.75;99852.01;1752263;80;21552;-75
2021/12/30 00:32:00;;;;;;;27.23;18.47;;;;;;;-3.93;83.59;99847.87;1750414;81;21896;-80
2021/12/30 00:34:26;;;;;;;32.70;20.40;;;;;;;-3.94;83.60;99854.13;1719227;83;21536;-76
2021/12/30 00:36:52;;;;;;;29.27;19.97;;;;;;;-3.98;83.70;99857.52;1729864;82;21656;-75
2021/12/30 00:39:19;;;;;;;33.03;20.07;;;;;;;-3.97;83.73;99853.92;1726717;82;21606;-75
2021/12/30 00:41:45;;;;;;;29.50;19.93;;;;;;;-3.97;83.74;99854.41;1750419;80;21029;-75
2021/12/30 00:44:12;;;;;;;43.00;26.13;;;;;;;-3.96;83.79;99850.81;1750331;82;21130;-76
2021/12/30 00:46:38;;;;;;;32.43;20.13;;;;;;;-3.91;83.84;99851.17;1730743;82;20982;-74
2021/12/30 00:49:04;;;;;;;45.80;25.53;;;;;;;-3.86;83.74;99848.92;1752026;80;21014;-75
2021/12/30 00:51:32;;;;;;;41.20;26.63;;;;;;;-3.88;83.59;99855.31;1722033;81;21162;-73
2021/12/30 00:53:58;;;;;;;42.03;26.53;;;;;;;-3.96;83.68;99845.55;1737369;82;21075;-78
2021/12/30 00:56:24;;;;;;;39.53;25.23;;;;;;;-3.93;83.96;99842.61;1704963;82;21070;-75
2021/12/30 00:58:52;;;;;;;45.97;29.37;;;;;;;-3.90;83.96;99843.64;1730779;82;21774;-80
2021/12/30 01:01:19;;;;;;;37.13;24.63;;;;;;;-3.91;83.98;99839.84;1731009;82;21063;-75
2021/12/30 01:03:47;;;;;;;44.03;24.10;;;;;;;-3.90;84.02;99838.38;1731042;81;20972;-75
2021/12/30 01:06:14;;;;;;;45.60;28.97;;;;;;;-3.92;84.03;99850.83;1749718;82;21114;-74
2021/12/30 01:08:42;;;;;;;57.33;32.03;;;;;;;-3.93;84.15;99847.87;1736665;82;20960;-76
2021/12/30 01:11:10;;;;;;;45.80;25.47;;;;;;;-3.96;84.23;99843.76;1730418;82;21062;-74
2021/12/30 01:13:42;;;;;;;52.53;29.87;;;;;;;-3.97;84.41;99840.80;1706195;82;21552;-70
2021/12/30 01:16:17;;;;;;;46.85;28.52;;;;;;;-3.98;84.51;99844.39;1731001;82;21003;-76
2021/12/30 01:19:00;;;;;;;47.30;29.17;;;;;;;-4.01;84.58;99851.76;1718849;83;21058;-72
2021/12/30 01:21:25;;;;;;;55.27;28.30;;;;;;;-4.01;84.78;99848.64;1729041;82;21177;-73
2021/12/30 01:23:53;;;;;;;61.97;33.40;;;;;;;-4.03;84.76;99848.48;1730158;81;21572;-75
2021/12/30 01:26:20;;;;;;;45.40;26.67;;;;;;;-4.01;84.92;99845.19;1749657;82;21624;-77
2021/12/30 01:28:47;;;;;;;50.73;28.10;;;;;;;-3.97;85.01;99844.73;1731153;82;21098;-78
2021/12/30 01:31:14;;;;;;;59.47;32.20;;;;;;;-3.96;84.94;99846.88;1730148;82;21114;-78
2021/12/30 01:33:43;;;;;;;55.53;30.67;;;;;;;-3.97;84.93;99841.27;1720433;82;21157;-77
2021/12/30 01:36:08;;;;;;;46.53;28.40;;;;;;;-3.96;85.00;99845.08;1694602;82;20974;-82
2021/12/30 01:38:35;;;;;;;39.50;26.07;;;;;;;-3.92;84.92;99836.88;1750468;82;21008;-76
2021/12/30 01:41:01;;;;;;;49.10;30.73;;;;;;;-3.92;84.89;99837.70;1750441;82;22175;-76
2021/12/30 01:43:29;;;;;;;45.40;26.67;;;;;;;-3.89;84.85;99839.22;1734787;81;21561;-78
2021/12/30 01:45:56;;;;;;;42.10;27.40;;;;;;;-3.86;84.88;99838.89;1727111;82;21956;-78
2021/12/30 01:48:22;;;;;;;42.13;26.03;;;;;;;-3.89;84.74;99838.73;1730908;82;21026;-77
2021/12/30 01:50:49;;;;;;;42.93;26.97;;;;;;;-3.92;84.76;99842.95;1749605;82;21051;-76
2021/12/30 01:53:16;;;;;;;51.63;30.90;;;;;;;-3.92;84.84;99842.95;1726607;82;20984;-79
2021/12/30 01:55:43;;;;;;;44.67;26.83;;;;;;;-3.90;84.85;99850.20;1725113;83;21023;-77
2021/12/30 01:58:10;;;;;;;42.10;26.00;;;;;;;-3.85;84.86;99844.00;1720742;81;21097;-79
2021/12/30 02:00:40;;;;;;;40.80;27.53;;;;;;;-3.84;84.73;99850.91;1708736;83;20949;-78
2021/12/30 02:03:06;;;;;;;48.33;27.83;;;;;;;-3.88;84.43;99852.17;1724030;83;21003;-77
2021/12/30 02:05:33;;;;;;;53.77;29.07;;;;;;;-3.91;84.44;99855.12;1731858;82;21478;-76
2021/12/30 02:08:00;;;;;;;47.33;29.20;;;;;;;-3.91;84.48;99853.80;1716229;82;20976;-77
2021/12/30 02:10:27;;;;;;;50.30;30.00;;;;;;;-3.91;84.43;99856.92;1724440;83;22003;-78
2021/12/30 02:12:53;;;;;;;53.77;31.03;;;;;;;-3.89;84.44;99860.23;1724394;82;20971;-79
2021/12/30 02:15:20;;;;;;;47.23;28.13;;;;;;;-3.87;84.48;99862.20;1718486;82;21023;-80
2021/12/30 02:17:49;;;;;;;48.70;28.53;;;;;;;-3.80;84.48;99864.56;1738689;82;21047;-78
2021/12/30 02:20:50;;;;;;;54.60;30.27;;;;;;;-3.78;84.20;99870.47;1738678;82;21037;-78
2021/12/30 02:23:23;;;;;;;49.10;31.80;;;;;;;-3.75;84.25;99866.23;1738345;82;21093;-77
2021/12/30 02:25:52;;;;;;;50.97;27.17;;;;;;;-3.74;83.80;99871.31;1724365;83;21090;-79
2021/12/30 02:28:23;;;;;;;49.33;28.50;;;;;;;-3.72;83.86;99869.38;1756090;80;20936;-76
2021/12/30 02:30:53;;;;;;;43.73;27.35;;;;;;;-3.70;83.78;99871.37;1724558;83;21004;-77
2021/12/30 02:33:20;;;;;;;41.37;26.00;;;;;;;-3.66;83.74;99867.94;1724623;83;21539;-78
2021/12/30 02:35:47;;;;;;;77.97;31.10;;;;;;;-3.61;83.64;99866.50;1703335;83;21588;-77
2021/12/30 02:38:16;;;;;;;43.53;26.43;;;;;;;-3.60;83.27;99867.33;1737878;82;21562;-79
2021/12/30 02:40:45;;;;;;;56.93;31.43;;;;;;;-3.62;83.16;99874.53;1739979;81;20954;-77
2021/12/30 02:43:19;;;;;;;48.53;29.23;;;;;;;-3.65;83.00;99870.42;1749099;81;21049;-76
2021/12/30 02:45:46;;;;;;;43.67;25.43;;;;;;;-3.63;83.08;99868.93;1738637;82;21084;-79
2021/12/30 02:48:18;;;;;;;51.40;29.73;;;;;;;-3.60;83.13;99866.81;1728188;81;20973;-84
2021/12/30 02:50:45;;;;;;;39.40;26.40;;;;;;;-3.55;83.11;99866.38;1749236;82;20937;-80
2021/12/30 02:53:11;;;;;;;42.17;25.20;;;;;;;-3.50;83.06;99873.28;1749922;81;21541;-82
2021/12/30 02:55:38;;;;;;;36.17;23.40;;;;;;;-3.45;83.06;99871.53;1751039;81;21608;-83
2021/12/30 02:58:05;;;;;;;42.50;25.50;;;;;;;-3.41;82.90;99876.31;1706162;82;21066;-86
2021/12/30 03:00:31;;;;;;;41.20;25.90;;;;;;;-3.42;82.81;99873.83;1750702;81;21019;-82
2021/12/30 03:02:58;;;;;;;48.57;27.23;;;;;;;-3.42;82.83;99878.60;1727068;82;20937;-84
2021/12/30 03:05:25;;;;;;;32.07;22.03;;;;;;;-3.41;82.75;99878.95;1750542;82;20945;-83
2021/12/30 03:07:52;;;;;;;32.03;23.90;;;;;;;-3.36;82.81;99883.25;1712593;82;21332;-82
2021/12/30 03:10:21;;;;;;;45.43;26.10;;;;;;;-3.36;82.66;99891.63;1728781;81;21050;-79
2021/12/30 03:12:55;;;;;;;46.83;28.67;;;;;;;-3.38;82.70;99888.31;1729821;82;21310;-82
2021/12/30 03:15:20;;;;;;;48.90;28.43;;;;;;;-3.36;82.73;99891.63;1750071;81;20975;-84
2021/12/30 03:17:48;;;;;;;58.07;32.23;;;;;;;-3.38;82.68;99887.82;1750870;82;20928;-83
2021/12/30 03:20:14;;;;;;;49.50;29.20;;;;;;;-3.38;82.73;99889.63;1731169;82;21102;-82
2021/12/30 03:22:41;;;;;;;44.27;25.20;;;;;;;-3.30;82.85;99895.75;1730293;82;21670;-84
2021/12/30 03:25:10;;;;;;;41.67;24.10;;;;;;;-3.25;82.61;99907.11;1750505;81;21116;-83
2021/12/30 03:27:38;;;;;;;43.10;27.13;;;;;;;-3.25;82.47;99912.38;1731216;82;21004;-83
2021/12/30 03:30:08;;;;;;;47.90;24.73;;;;;;;-3.26;82.43;99917.32;1723731;82;21122;-79
2021/12/30 03:32:36;;;;;;;33.50;20.67;;;;;;;-3.26;82.25;99918.63;1706559;82;21014;-78
2021/12/30 03:35:04;;;;;;;37.00;24.93;;;;;;;-3.30;82.14;99923.36;1730551;81;21119;-79
2021/12/30 03:37:30;;;;;;;31.23;19.80;;;;;;;-3.32;82.05;99927.97;1727447;82;23101;-82
2021/12/30 03:39:57;;;;;;;35.80;21.80;;;;;;;-3.35;82.00;99926.94;1749682;82;21023;-80
2021/12/30 03:42:23;;;;;;;27.63;18.93;;;;;;;-3.41;81.99;99929.38;1751973;81;20995;-75
2021/12/30 03:44:52;;;;;;;35.03;20.13;;;;;;;-3.45;82.09;99931.47;1750348;82;21047;-77
2021/12/30 03:47:19;;;;;;;24.77;17.60;;;;;;;-3.48;82.27;99930.48;1752227;81;21087;-77
2021/12/30 03:49:46;;;;;;;30.90;18.73;;;;;;;-3.40;82.47;99921.81;1726017;82;21073;-75
2021/12/30 03:52:19;;;;;;;24.87;16.10;;;;;;;-3.39;82.27;99926.92;1705620;82;20986;-76
2021/12/30 03:54:43;;;;;;;37.90;21.53;;;;;;;-3.46;82.24;99927.22;1730269;81;21106;-74
2021/12/30 03:57:09;;;;;;;28.87;18.77;;;;;;;-3.50;82.33;99930.31;1750609;81;21096;-73
2021/12/30 03:59:36;;;;;;;26.63;17.20;;;;;;;-3.49;82.46;99937.19;1726480;82;20951;-72
2021/12/30 04:02:03;;;;;;;26.90;18.93;;;;;;;-3.49;82.50;99935.39;1750913;82;21078;-82
2021/12/30 04:04:30;;;;;;;28.13;17.33;;;;;;;-3.46;82.59;99935.59;1750947;81;21481;-81
2021/12/30 04:06:58;;;;;;;26.33;16.30;;;;;;;-3.39;82.56;99934.81;1750903;82;21686;-82
2021/12/30 04:09:25;;;;;;;26.13;17.67;;;;;;;-3.33;82.52;99933.37;1744331;82;21047;-80
2021/12/30 04:11:51;;;;;;;30.67;17.53;;;;;;;-3.27;82.41;99944.59;1717128;82;21530;-81
2021/12/30 04:14:18;;;;;;;32.93;18.63;;;;;;;-3.24;82.14;99946.41;1750826;81;21574;-79
2021/12/30 04:16:46;;;;;;;24.60;16.17;;;;;;;-3.26;81.94;99947.05;1750701;81;21495;-81
2021/12/30 04:19:12;;;;;;;24.40;16.90;;;;;;;-3.27;81.83;99948.05;1749662;81;21057;-80
2021/12/30 04:21:39;;;;;;;31.47;20.20;;;;;;;-3.36;81.69;99956.04;1737503;82;21319;-81
2021/12/30 04:24:05;;;;;;;27.13;17.63;;;;;;;-3.43;81.90;99950.56;1737950;82;21059;-80
2021/12/30 04:26:32;;;;;;;24.07;16.60;;;;;;;-3.46;82.05;99964.51;1750698;81;21132;-79
2021/12/30 04:28:58;;;;;;;24.07;16.17;;;;;;;-3.46;82.25;99964.02;1750632;82;21510;-78
2021/12/30 04:31:25;;;;;;;24.77;17.67;;;;;;;-3.40;82.37;99963.87;1710101;82;21748;-79
2021/12/30 04:33:52;;;;;;;28.80;18.80;;;;;;;-3.36;82.22;99966.07;1730835;82;21017;-78
2021/12/30 04:36:18;;;;;;;29.77;19.47;;;;;;;-3.41;82.12;99966.19;1750925;82;20945;-77
2021/12/30 04:38:45;;;;;;;35.27;22.03;;;;;;;-3.49;82.19;99966.11;1751123;81;21116;-76
2021/12/30 04:41:11;;;;;;;33.77;24.07;;;;;;;-3.57;82.36;99968.20;1727346;81;20976;-78
2021/12/30 04:43:37;;;;;;;27.87;19.80;;;;;;;-3.64;82.42;99971.91;1720196;82;20932;-80
2021/12/30 04:46:04;;;;;;;30.20;19.17;;;;;;;-3.62;82.67;99980.48;1733002;82;21972;-77
2021/12/30 04:48:31;;;;;;;35.83;22.47;;;;;;;-3.59;82.77;99979.34;1751623;82;21275;-80
2021/12/30 04:50:57;;;;;;;33.80;21.33;;;;;;;-3.59;82.88;99984.11;1727318;81;21383;-77
2021/12/30 04:53:23;;;;;;;42.23;26.53;;;;;;;-3.59;82.89;99988.05;1749914;81;21031;-78
2021/12/30 04:55:50;;;;;;;35.10;22.87;;;;;;;-3.58;82.89;99993.66;1739493;82;21082;-76
2021/12/30 04:58:17;;;;;;;43.47;26.13;;;;;;;-3.64;82.98;99995.57;1748861;82;20957;-78
2021/12/30 05:00:43;;;;;;;55.37;26.40;;;;;;;-3.67;83.12;100002.45;1739924;82;21023;-75
2021/12/30 05:03:12;;;;;;;51.70;28.43;;;;;;;-3.67;83.21;100002.94;1722090;82;21246;-75
2021/12/30 05:05:49;;;;;;;34.07;21.63;;;;;;;-3.64;83.43;100002.63;1738419;82;21579;-77
2021/12/30 05:08:18;;;;;;;41.87;24.13;;;;;;;-3.59;83.59;100008.25;1738212;82;20960;-77
2021/12/30 05:10:46;;;;;;;58.43;29.40;;;;;;;-3.58;83.48;100012.54;1723029;83;21518;-77
2021/12/30 05:13:13;;;;;;;50.37;28.73;;;;;;;-3.61;83.43;100015.00;1737761;82;21100;-75
2021/12/30 05:15:42;;;;;;;53.87;27.33;;;;;;;-3.53;83.72;100020.31;1724417;83;21144;-78
2021/12/30 05:18:11;;;;;;;50.53;29.83;;;;;;;-3.46;83.50;100024.48;1727466;83;21154;-77
2021/12/30 05:20:38;;;;;;;45.60;25.37;;;;;;;-3.40;83.43;100020.41;1724238;83;21197;-78
2021/12/30 05:23:04;;;;;;;50.77;25.43;;;;;;;-3.31;83.09;100013.73;1738594;82;21060;-76
2021/12/30 05:25:32;;;;;;;47.33;23.17;;;;;;;-3.32;82.74;100012.59;1738542;82;21055;-78
2021/12/30 05:27:59;;;;;;;41.90;25.30;;;;;;;-3.34;82.68;100010.11;1689246;84;21157;-77
2021/12/30 05:30:25;;;;;;;40.97;24.70;;;;;;;-3.37;82.64;100003.02;1724166;83;21137;-76
2021/12/30 05:32:54;;;;;;;42.07;27.60;;;;;;;-3.38;82.56;100012.71;1728176;81;21036;-78
2021/12/30 05:35:22;;;;;;;51.97;27.20;;;;;;;-3.38;82.55;100012.71;1707288;84;20993;-78
2021/12/30 05:37:48;;;;;;;39.60;23.17;;;;;;;-3.35;82.55;100015.52;1707676;84;21083;-76
2021/12/30 05:40:18;;;;;;;40.20;22.80;;;;;;;-3.32;82.52;100011.28;1712481;83;21987;-75
2021/12/30 05:42:46;;;;;;;33.93;22.50;;;;;;;-3.30;82.57;100019.34;1716340;82;21486;-79
2021/12/30 05:45:16;;;;;;;48.33;29.57;;;;;;;-3.25;82.50;100016.25;1738276;82;21060;-78
2021/12/30 05:47:47;;;;;;;40.30;24.37;;;;;;;-3.25;82.44;100019.70;1724478;83;21037;-73
2021/12/30 05:50:18;;;;;;;33.50;23.13;;;;;;;-3.16;82.63;100028.48;1719285;82;21624;-74
2021/12/30 05:52:47;;;;;;;47.77;29.57;;;;;;;-3.09;82.26;100021.63;1722586;83;21053;-81
2021/12/30 05:55:13;;;;;;;55.37;32.10;;;;;;;-3.11;82.04;100020.46;1708136;82;21023;-80
2021/12/30 05:57:41;;;;;;;39.70;23.83;;;;;;;-2.99;82.13;100024.99;1717581;82;21075;-80
2021/12/30 06:00:11;;;;;;;44.77;29.03;;;;;;;-2.90;81.58;100028.49;1729651;82;20977;-83
2021/12/30 06:02:37;;;;;;;42.87;27.10;;;;;;;-2.94;81.34;100032.42;1723568;83;21016;-82
2021/12/30 06:05:05;;;;;;;37.37;25.37;;;;;;;-3.03;81.18;100028.09;1718958;82;21094;-77
2021/12/30 06:07:32;;;;;;;44.87;29.93;;;;;;;-3.06;81.42;100035.78;1713058;82;21099;-80
2021/12/30 06:09:58;;;;;;;45.07;29.27;;;;;;;-3.11;81.28;100034.09;1739131;82;21493;-76
2021/12/30 06:12:24;;;;;;;46.23;27.37;;;;;;;-3.21;81.32;100042.58;1748867;81;21521;-78
2021/12/30 06:14:55;;;;;;;38.67;24.93;;;;;;;-3.23;81.57;100045.86;1748854;81;20994;-78
2021/12/30 06:17:22;;;;;;;45.17;28.27;;;;;;;-3.21;81.74;100047.34;1748847;81;21144;-72
2021/12/30 06:19:48;;;;;;;51.07;30.23;;;;;;;-3.19;81.85;100056.41;1723149;81;21009;-76
2021/12/30 06:22:15;;;;;;;41.47;26.20;;;;;;;-3.19;81.84;100058.55;1707650;83;20953;-78
2021/12/30 06:24:41;;;;;;;32.60;21.07;;;;;;;-3.21;81.87;100068.39;1707701;84;21051;-77
2021/12/30 06:27:08;;;;;;;35.00;21.37;;;;;;;-3.18;81.91;100076.48;1710386;83;21111;-76
2021/12/30 06:29:35;;;;;;;45.20;26.37;;;;;;;-3.18;81.92;100081.73;1727863;82;21075;-74
2021/12/30 06:32:03;;;;;;;37.90;24.43;;;;;;;-3.16;81.98;100082.39;1707647;84;21068;-78
2021/12/30 06:34:29;;;;;;;45.83;29.17;;;;;;;-3.14;82.01;100081.77;1719666;82;21133;-76
2021/12/30 06:36:55;;;;;;;43.87;28.63;;;;;;;-3.13;82.02;100087.38;1724552;83;21595;-78
2021/12/30 06:39:22;;;;;;;40.73;26.90;;;;;;;-3.16;82.12;100087.66;1738934;82;21055;-76
2021/12/30 06:41:48;;;;;;;49.63;28.97;;;;;;;-3.20;82.20;100086.31;1738372;82;21191;-77
2021/12/30 06:44:14;;;;;;;45.63;29.03;;;;;;;-3.24;82.32;100081.02;1738426;82;21035;-77
2021/12/30 06:46:48;;;;;;;45.03;28.00;;;;;;;-3.25;82.53;100082.83;1737748;82;21099;-84
2021/12/30 06:49:09;;;;;;;54.50;30.40;;;;;;;-3.26;82.60;100082.48;1743170;82;21103;-79
2021/12/30 06:51:35;;;;;;;54.60;30.67;;;;;;;-3.26;82.71;100081.69;1724146;82;21075;-75
2021/12/30 06:54:04;;;;;;;51.77;32.00;;;;;;;-3.23;82.97;100076.94;1743405;82;21052;-77
2021/12/30 06:56:31;;;;;;;51.90;29.77;;;;;;;-3.20;83.02;100081.88;1711115;82;21224;-77
2021/12/30 06:58:58;;;;;;;69.67;38.50;;;;;;;-3.14;83.16;100083.08;1696872;83;21063;-79
2021/12/30 07:01:24;;;;;;;52.50;31.30;;;;;;;-3.16;82.97;100082.39;1719004;83;21540;-79
2021/12/30 07:03:52;;;;;;;59.07;35.00;;;;;;;-3.14;83.11;100077.82;1719425;83;21011;-79
2021/12/30 07:06:19;;;;;;;48.80;28.87;;;;;;;-3.11;83.07;100074.39;1736135;82;21564;-79
2021/12/30 07:08:48;;;;;;;62.27;32.43;;;;;;;-3.07;83.08;100074.41;1750560;81;21525;-76
2021/12/30 07:11:14;;;;;;;69.50;36.37;;;;;;;-3.07;82.90;100070.16;1748018;81;20995;-75
2021/12/30 07:13:41;;;;;;;58.50;35.70;;;;;;;-3.11;83.05;100071.76;1750233;82;21047;-76
2021/12/30 07:16:07;;;;;;;52.70;30.27;;;;;;;-3.05;83.22;100074.27;1705653;82;21038;-76
2021/12/30 07:18:34;;;;;;;52.23;29.70;;;;;;;-2.98;83.20;100068.75;1777788;80;21497;-78
2021/12/30 07:21:00;;;;;;;59.13;34.13;;;;;;;-2.98;83.05;100071.87;1750413;82;21030;-77
2021/12/30 07:23:26;;;;;;;52.33;33.27;;;;;;;-2.96;83.10;100073.34;1742124;82;21513;-80
2021/12/30 07:25:53;;;;;;;49.80;30.50;;;;;;;-2.92;83.08;100080.44;1721455;82;21036;-81
2021/12/30 07:28:20;;;;;;;50.67;31.10;;;;;;;-2.84;83.18;100081.34;1750684;81;20960;-82
2021/12/30 07:30:46;;;;;;;51.97;30.13;;;;;;;-2.79;83.05;100081.70;1746455;82;21178;-85
2021/12/30 07:33:13;;;;;;;59.53;35.60;;;;;;;-2.74;82.99;100081.23;1732135;82;20948;-80
2021/12/30 07:35:39;;;;;;;68.93;39.10;;;;;;;-2.74;82.70;100079.44;1723898;82;20982;-82
2021/12/30 07:38:05;;;;;;;64.37;36.10;;;;;;;-2.78;82.64;100079.38;1737435;81;21038;-79
2021/12/30 07:40:32;;;;;;;60.00;34.57;;;;;;;-2.79;82.70;100083.02;1721413;82;21610;-82
2021/12/30 07:42:59;;;;;;;65.00;41.63;;;;;;;-2.86;82.71;100081.97;1746234;82;21886;-77
2021/12/30 07:45:26;;;;;;;68.33;39.90;;;;;;;-2.89;82.85;100079.66;1750510;81;20943;-79
2021/12/30 07:47:53;;;;;;;61.67;38.17;;;;;;;-2.93;83.00;100080.13;1750477;81;21111;-81
2021/12/30 07:50:21;;;;;;;59.13;36.37;;;;;;;-2.93;83.17;100073.55;1730868;82;21575;-78
2021/12/30 07:52:47;;;;;;;54.70;33.20;;;;;;;-2.92;83.32;100080.44;1730752;82;21524;-79
2021/12/30 07:55:14;;;;;;;64.17;36.50;;;;;;;-2.87;83.39;100082.12;1741166;81;21413;-79
2021/12/30 07:57:40;;;;;;;56.30;37.23;;;;;;;-2.88;83.34;100088.38;1724505;83;21535;-78
2021/12/30 08:00:10;;;;;;;62.80;35.27;;;;;;;-2.90;83.40;100091.65;1738369;82;20996;-78
2021/12/30 08:02:42;;;;;;;53.58;33.28;;;;;;;-2.93;83.54;100096.73;1719304;82;21000;-77
2021/12/30 08:05:14;;;;;;;64.33;36.87;;;;;;;-2.98;83.77;100093.74;1738488;82;21019;-79
2021/12/30 08:07:42;;;;;;;61.92;36.65;;;;;;;-3.00;84.05;100104.06;1738795;82;21841;-79
2021/12/30 08:10:13;;;;;;;62.73;37.87;;;;;;;-2.95;84.78;100101.80;1738806;82;21032;-79
2021/12/30 08:12:43;;;;;;;65.63;35.77;;;;;;;-2.88;84.97;100109.44;1724328;83;20987;-78
2021/12/30 08:15:10;;;;;;;62.73;36.20;;;;;;;-2.79;85.37;100113.29;1769992;80;21584;-81
2021/12/30 08:17:36;;;;;;;70.90;36.90;;;;;;;-2.73;84.86;100108.70;1738321;82;21020;-77
2021/12/30 08:20:05;;;;;;;65.43;35.97;;;;;;;-2.75;84.38;100112.00;1738719;82;22091;-77
2021/12/30 08:22:32;;;;;;;70.67;34.83;;;;;;;-2.84;84.15;100111.61;1673383;82;21007;-76
2021/12/30 08:24:59;;;;;;;61.83;36.60;;;;;;;-2.90;84.32;100106.95;1738898;82;21089;-76
2021/12/30 08:27:25;;;;;;;58.80;34.60;;;;;;;-2.90;84.43;100106.13;1738787;82;21565;-76
2021/12/30 08:29:51;;;;;;;60.57;34.43;;;;;;;-2.86;84.61;100107.46;1738774;82;21012;-77
2021/12/30 08:32:19;;;;;;;69.73;38.23;;;;;;;-2.83;84.66;100107.17;1733397;82;21071;-80
2021/12/30 08:34:46;;;;;;;57.17;33.90;;;;;;;-2.77;84.69;100103.42;1688998;84;21107;-82
2021/12/30 08:37:12;;;;;;;61.23;35.97;;;;;;;-2.75;84.52;100104.10;1673847;84;21064;-81
2021/12/30 08:39:40;;;;;;;67.97;36.57;;;;;;;-2.73;84.69;100098.17;1707553;84;21012;-81
2021/12/30 08:42:22;;;;;;;65.10;36.00;;;;;;;-2.73;84.63;100096.03;1677674;83;21041;-82
2021/12/30 08:44:49;;;;;;;65.00;35.13;;;;;;;-2.79;84.45;100096.67;1730093;82;21578;-81
2021/12/30 08:47:15;;;;;;;60.00;35.97;;;;;;;-2.79;84.60;100090.09;1690281;84;20938;-82
2021/12/30 08:49:44;;;;;;;58.10;36.07;;;;;;;-2.78;84.95;100091.23;1749116;82;21045;-79
2021/12/30 08:52:11;;;;;;;57.10;33.70;;;;;;;-2.76;84.95;100083.19;1747983;81;21011;-79
2021/12/30 08:54:37;;;;;;;60.20;35.43;;;;;;;-2.69;85.01;100098.23;1745986;82;21038;-79
2021/12/30 08:57:04;;;;;;;56.73;35.70;;;;;;;-2.64;84.57;100094.61;1745109;82;21074;-79
2021/12/30 08:59:32;;;;;;;54.93;32.70;;;;;;;-2.64;84.32;100097.77;1745510;81;21086;-79
2021/12/30 09:01:59;;;;;;;60.87;33.47;;;;;;;-2.61;84.44;100090.03;1745106;81;21032;-83
2021/12/30 09:04:26;;;;;;;73.27;44.07;;;;;;;-2.56;84.69;100096.48;1745648;82;21086;-81
2021/12/30 09:06:53;;;;;;;64.33;39.00;;;;;;;-2.51;84.65;100092.06;1746987;82;21323;-81
2021/12/30 09:09:21;;;;;;;64.40;35.07;;;;;;;-2.48;84.10;100093.89;1725066;82;21023;-79
2021/12/30 09:11:47;;;;;;;62.93;37.70;;;;;;;-2.52;83.79;100099.62;1714215;83;21044;-79
2021/12/30 09:14:14;;;;;;;59.63;35.83;;;;;;;-2.61;83.60;100090.03;1739973;82;20977;-78
2021/12/30 09:16:42;;;;;;;57.30;36.23;;;;;;;-2.64;83.97;100092.50;1744449;80;20944;-77
2021/12/30 09:19:10;;;;;;;61.47;37.57;;;;;;;-2.60;83.92;100097.78;1740342;81;21071;-80
2021/12/30 09:21:38;;;;;;;52.17;31.10;;;;;;;-2.61;83.82;100101.39;1714890;83;21478;-80
2021/12/30 09:24:06;;;;;;;56.60;31.67;;;;;;;-2.62;83.88;100098.91;1706744;82;21596;-80
2021/12/30 09:26:32;;;;;;;55.77;35.93;;;;;;;-2.59;84.09;100101.24;1731452;81;21118;-78
2021/12/30 09:29:00;;;;;;;55.17;32.97;;;;;;;-2.57;84.03;100089.56;1717913;82;21135;-82
2021/12/30 09:31:28;;;;;;;62.17;35.87;;;;;;;-2.58;84.01;100090.53;1719711;82;21112;-82
2021/12/30 09:33:57;;;;;;;55.97;30.37;;;;;;;-2.55;84.04;100084.98;1699636;82;20960;-78
2021/12/30 09:36:26;;;;;;;58.77;32.43;;;;;;;-2.53;84.07;100095.33;1744325;82;21011;-80
2021/12/30 09:38:53;;;;;;;62.00;31.90;;;;;;;-2.53;84.15;100082.99;1745557;82;21003;-83
2021/12/30 09:41:20;;;;;;;54.13;34.57;;;;;;;-2.49;84.24;100084.81;1745864;81;21313;-80
2021/12/30 09:43:46;;;;;;;55.40;34.93;;;;;;;-2.43;84.34;100092.92;1745748;82;21596;-81
2021/12/30 09:46:12;;;;;;;62.23;34.07;;;;;;;-2.35;84.34;100084.26;1744015;82;21660;-85
2021/12/30 09:48:40;;;;;;;64.73;39.90;;;;;;;-2.23;83.94;100081.67;1711161;83;21698;-90
2021/12/30 09:51:08;;;;;;;59.90;32.87;;;;;;;-2.25;83.57;100079.18;1745414;82;21533;-87
2021/12/30 09:53:34;;;;;;;53.37;28.80;;;;;;;-2.31;83.57;100070.62;1748817;82;21039;-84
2021/12/30 09:56:01;;;;;;;53.80;33.50;;;;;;;-2.37;83.67;100064.66;1748273;81;21592;-83
2021/12/30 09:58:29;;;;;;;58.87;34.13;;;;;;;-2.43;83.81;100063.13;1708019;82;21138;-84
2021/12/30 10:00:56;;;;;;;56.03;32.83;;;;;;;-2.41;84.07;100061.18;1750588;82;21564;-84
2021/12/30 10:03:23;;;;;;;55.83;33.33;;;;;;;-2.38;84.32;100066.12;1736394;81;21558;-80
2021/12/30 10:05:49;;;;;;;57.63;33.07;;;;;;;-2.43;84.25;100063.96;1729995;82;20980;-83
2021/12/30 10:08:24;;;;;;;49.00;28.73;;;;;;;-2.44;84.48;100058.84;1746485;82;21005;-81
2021/12/30 10:10:55;;;;;;;53.70;32.13;;;;;;;-2.42;84.64;100060.84;1731591;81;21029;-81
2021/12/30 10:13:32;;;;;;;55.88;31.85;;;;;;;-2.41;84.61;100071.71;1720399;82;21047;-78
2021/12/30 10:16:06;;;;;;;38.35;23.98;;;;;;;-2.38;84.78;100068.75;1733204;82;20902;-81
2021/12/30 10:18:58;;;;;;;47.23;28.70;;;;;;;-2.29;84.75;100063.36;1730774;81;21065;-80
2021/12/30 10:21:37;;;;;;;51.10;29.97;;;;;;;-2.20;84.61;100072.95;1749599;82;21026;-77
2021/12/30 10:24:07;;;;;;;55.33;29.53;;;;;;;-2.21;83.89;100062.59;1724498;82;21273;-82
2021/12/30 10:26:55;;;;;;;49.53;29.90;;;;;;;-2.25;83.97;100067.33;1700145;82;21089;-86
2021/12/30 10:29:21;;;;;;;50.73;29.00;;;;;;;-2.16;84.16;100060.30;1729556;82;20965;-75
2021/12/30 10:31:48;;;;;;;49.33;26.43;;;;;;;-2.13;83.89;100053.39;1750579;81;21047;-79
2021/12/30 10:34:17;;;;;;;45.30;27.77;;;;;;;-2.14;83.80;100042.51;1731075;82;20984;-79
2021/12/30 10:36:46;;;;;;;53.03;30.80;;;;;;;-2.21;83.72;100047.58;1748513;82;21124;-78
2021/12/30 10:39:26;;;;;;;47.67;24.73;;;;;;;-2.28;84.05;100041.31;1750389;82;21722;-78
2021/12/30 10:42:00;;;;;;;43.63;27.37;;;;;;;-2.25;83.92;100034.89;1750297;82;20972;-80
2021/12/30 10:44:58;;;;;;;55.60;29.03;;;;;;;-2.31;83.78;100037.69;1728524;82;21047;-76
2021/12/30 10:47:28;;;;;;;52.43;25.53;;;;;;;-2.33;84.05;100035.70;1730647;82;21035;-76
2021/12/30 10:50:10;;;;;;;49.33;30.37;;;;;;;-2.34;84.22;100030.09;1777588;80;21810;-78
2021/12/30 10:52:51;;;;;;;45.27;26.57;;;;;;;-2.36;84.32;100033.39;1727254;82;21034;-77
2021/12/30 10:55:17;;;;;;;47.33;28.53;;;;;;;-2.31;84.52;100036.86;1726889;81;20986;-75
2021/12/30 10:57:44;;;;;;;47.20;24.63;;;;;;;-2.23;84.44;100029.81;1749494;82;21015;-74
2021/12/30 11:00:13;;;;;;;50.20;28.13;;;;;;;-2.17;84.16;100034.11;1725434;82;20980;-74
2021/12/30 11:02:40;;;;;;;51.80;29.73;;;;;;;-2.16;84.11;100033.13;1738814;82;21122;-75
2021/12/30 11:05:10;;;;;;;51.57;29.60;;;;;;;-2.13;84.14;100027.53;1750529;82;20952;-75
2021/12/30 11:07:53;;;;;;;48.08;29.15;;;;;;;-2.12;83.97;100013.37;1719070;83;20987;-74
2021/12/30 11:10:32;;;;;;;53.10;31.70;;;;;;;-2.15;83.96;100018.95;1713487;82;22159;-74
2021/12/30 11:13:12;;;;;;;51.27;25.77;;;;;;;-2.17;84.12;100008.59;1723191;82;21112;-77
2021/12/30 11:15:39;;;;;;;47.20;27.07;;;;;;;-2.08;84.29;99998.41;1726624;82;21042;-77